FJI960 YPAD-NFFN
Flight info
| Callsign | FJI960 |
|---|---|
| Flight time | N/A |
| Altitude | 33000 |
| Route | BENDO DCT IGIPA Y46 EMTID Y27 EDPEG/N0462F350 Y27 BN B578 TEBUR B602 ATPEN B599 AGUTA |
| Aircraft | B738/M-SDE2E3FGHIRWXY/LB1 |
Departure
| Time | 2025-09-10 05:32 |
|---|---|
| Airport | Adelaide International Airport (YPAD) |
Arrival
| Time | N/A |
|---|---|
| Airport | Nadi International Airport (NFFN) |
| Time | Latitude | Longitude | Altitude | Speed | Heading |
|---|---|---|---|---|---|
| 2025-09-10 04:45 | -34.93829 | 138.53998 | 27 ft | 0 kts | 318° |
| 2025-09-10 05:22 | -34.93841 | 138.54011 | 27 ft | 3 kts | 325° |
| 2025-09-10 05:23 | -34.93877 | 138.54031 | 27 ft | 3 kts | 348° |
| 2025-09-10 05:23 | -34.93900 | 138.54035 | 27 ft | 1 kts | 354° |
| 2025-09-10 05:28 | -34.93886 | 138.54125 | 25 ft | 9 kts | 121° |
| 2025-09-10 05:29 | -34.93975 | 138.54221 | 27 ft | 0 kts | 140° |
| 2025-09-10 05:30 | -34.94000 | 138.54246 | 27 ft | 10 kts | 140° |
| 2025-09-10 05:30 | -34.94146 | 138.54205 | 28 ft | 20 kts | 230° |
| 2025-09-10 05:31 | -34.94900 | 138.53107 | 26 ft | 144 kts | 230° |
| 2025-09-10 05:31 | -34.96364 | 138.50993 | 1207 ft | 159 kts | 232° |
| 2025-09-10 05:32 | -34.97898 | 138.48701 | 2045 ft | 198 kts | 229° |
| 2025-09-10 05:32 | -35.00075 | 138.46398 | 2786 ft | 220 kts | 193° |
| 2025-09-10 05:33 | -35.03087 | 138.47518 | 3762 ft | 254 kts | 138° |
| 2025-09-10 05:33 | -35.04910 | 138.52983 | 5876 ft | 270 kts | 107° |
| 2025-09-10 05:34 | -35.05330 | 138.55235 | 6605 ft | 273 kts | 107° |
| 2025-09-10 05:34 | -35.06630 | 138.62111 | 8757 ft | 282 kts | 108° |
| 2025-09-10 05:35 | -35.07091 | 138.64459 | 9457 ft | 284 kts | 108° |
| 2025-09-10 05:35 | -35.08037 | 138.69213 | 10542 ft | 302 kts | 108° |
| 2025-09-10 05:36 | -35.09118 | 138.74556 | 10876 ft | 344 kts | 107° |
| 2025-09-10 05:36 | -35.10286 | 138.80367 | 11919 ft | 357 kts | 107° |
| 2025-09-10 05:37 | -35.11475 | 138.86297 | 13234 ft | 362 kts | 107° |
| 2025-09-10 05:37 | -35.13298 | 138.95392 | 15062 ft | 372 kts | 107° |
| 2025-09-10 05:38 | -35.14531 | 139.01556 | 16192 ft | 377 kts | 106° |
| 2025-09-10 05:38 | -35.15783 | 139.07835 | 17280 ft | 383 kts | 105° |
| 2025-09-10 05:39 | -35.16420 | 139.11032 | 17825 ft | 386 kts | 105° |
| 2025-09-10 05:39 | -35.17688 | 139.17411 | 18842 ft | 391 kts | 105° |
| 2025-09-10 05:40 | -35.18977 | 139.23919 | 19817 ft | 396 kts | 105° |
| 2025-09-10 05:40 | -35.20282 | 139.30524 | 20780 ft | 401 kts | 105° |
| 2025-09-10 05:41 | -35.21595 | 139.37194 | 21653 ft | 406 kts | 105° |
| 2025-09-10 05:41 | -35.23521 | 139.47341 | 22882 ft | 414 kts | 97° |
| 2025-09-10 05:42 | -35.23367 | 139.50858 | 23223 ft | 420 kts | 78° |
| 2025-09-10 05:42 | -35.18778 | 139.60048 | 24372 ft | 430 kts | 53° |
| 2025-09-10 05:43 | -35.16924 | 139.62908 | 24673 ft | 434 kts | 52° |
| 2025-09-10 05:45 | -35.01712 | 139.86715 | 26963 ft | 455 kts | 52° |
| 2025-09-10 05:47 | -34.85894 | 140.11536 | 28811 ft | 473 kts | 51° |
| 2025-09-10 05:49 | -34.69579 | 140.36946 | 30744 ft | 480 kts | 49° |
| 2025-09-10 05:51 | -34.52978 | 140.62619 | 32488 ft | 484 kts | 48° |
| 2025-09-10 05:53 | -34.36253 | 140.88300 | 33046 ft | 483 kts | 47° |
| 2025-09-10 05:55 | -34.19630 | 141.13636 | 33032 ft | 480 kts | 47° |
| 2025-09-10 05:56 | -34.04983 | 141.35814 | 33020 ft | 486 kts | 46° |
| 2025-09-10 05:59 | -33.85864 | 141.64563 | 33007 ft | 492 kts | 45° |
| 2025-09-10 06:00 | -33.72090 | 141.88128 | 33005 ft | 504 kts | 64° |
| 2025-09-10 06:03 | -33.60654 | 142.23173 | 32975 ft | 499 kts | 63° |
| 2025-09-10 06:04 | -33.51588 | 142.50215 | 32972 ft | 503 kts | 62° |
| 2025-09-10 06:07 | -33.39668 | 142.85450 | 32955 ft | 512 kts | 61° |
| 2025-09-10 06:09 | -33.28879 | 143.17012 | 32938 ft | 513 kts | 61° |
| 2025-09-10 06:11 | -33.18054 | 143.48360 | 32920 ft | 511 kts | 62° |
| 2025-09-10 06:12 | -33.08510 | 143.75760 | 32901 ft | 512 kts | 61° |
| 2025-09-10 06:15 | -32.94898 | 144.10055 | 32876 ft | 504 kts | 49° |
| 2025-09-10 06:17 | -32.78041 | 144.42014 | 32864 ft | 509 kts | 49° |
| 2025-09-10 06:19 | -32.64866 | 144.67017 | 32823 ft | 511 kts | 49° |
| 2025-09-10 06:21 | -32.47872 | 144.99015 | 32775 ft | 509 kts | 48° |
| 2025-09-10 06:23 | -32.34636 | 145.23747 | 32766 ft | 508 kts | 48° |
| 2025-09-10 06:25 | -32.18161 | 145.54302 | 32761 ft | 510 kts | 47° |
| 2025-09-10 06:27 | -32.04711 | 145.79068 | 32744 ft | 514 kts | 46° |
| 2025-09-10 06:28 | -31.91164 | 146.03854 | 32738 ft | 515 kts | 46° |
| 2025-09-10 06:31 | -31.73659 | 146.35646 | 32723 ft | 513 kts | 46° |
| 2025-09-10 06:32 | -31.60006 | 146.60250 | 32713 ft | 514 kts | 46° |
| 2025-09-10 06:35 | -31.42327 | 146.91884 | 32704 ft | 519 kts | 45° |
| 2025-09-10 06:36 | -31.28413 | 147.16608 | 32699 ft | 520 kts | 45° |
| 2025-09-10 06:39 | -31.10456 | 147.48280 | 32708 ft | 519 kts | 45° |
| 2025-09-10 06:40 | -30.96462 | 147.72787 | 32725 ft | 519 kts | 45° |
| 2025-09-10 06:43 | -30.78346 | 148.04284 | 32716 ft | 522 kts | 45° |
| 2025-09-10 06:44 | -30.64106 | 148.28879 | 32720 ft | 526 kts | 45° |
| 2025-09-10 06:47 | -30.45661 | 148.60515 | 32730 ft | 526 kts | 44° |
| 2025-09-10 06:49 | -30.27179 | 148.91961 | 32767 ft | 524 kts | 44° |
| 2025-09-10 06:51 | -30.12762 | 149.16316 | 32775 ft | 526 kts | 44° |
| 2025-09-10 06:52 | -29.98254 | 149.40685 | 32787 ft | 529 kts | 45° |
| 2025-09-10 06:55 | -29.79358 | 149.72209 | 32798 ft | 533 kts | 44° |
| 2025-09-10 06:56 | -29.64523 | 149.96744 | 32802 ft | 533 kts | 44° |
| 2025-09-10 06:59 | -29.46580 | 150.29277 | 32814 ft | 542 kts | 53° |
| 2025-09-10 07:00 | -29.33906 | 150.55701 | 32815 ft | 540 kts | 52° |
| 2025-09-10 07:03 | -29.17413 | 150.89711 | 33080 ft | 555 kts | 52° |
| 2025-09-10 07:04 | -29.04268 | 151.16636 | 34853 ft | 546 kts | 52° |
| 2025-09-10 07:07 | -28.87513 | 151.50598 | 34838 ft | 540 kts | 52° |
| 2025-09-10 07:09 | -28.65914 | 151.78892 | 34855 ft | 533 kts | 34° |
| 2025-09-10 07:11 | -28.47573 | 151.99550 | 34848 ft | 527 kts | 34° |
| 2025-09-10 07:13 | -28.24868 | 152.24930 | 34854 ft | 531 kts | 34° |
| 2025-09-10 07:15 | -28.06398 | 152.45474 | 34813 ft | 533 kts | 34° |
| 2025-09-10 07:17 | -27.82045 | 152.70582 | 34835 ft | 520 kts | 30° |
| 2025-09-10 07:19 | -27.62715 | 152.89040 | 34831 ft | 521 kts | 30° |
| 2025-09-10 07:21 | -27.38128 | 153.13299 | 34863 ft | 539 kts | 47° |
| 2025-09-10 07:23 | -27.29760 | 153.41628 | 34861 ft | 549 kts | 72° |
| 2025-09-10 07:25 | -27.20485 | 153.78792 | 34864 ft | 550 kts | 71° |
| 2025-09-10 07:27 | -27.10597 | 154.06470 | 34859 ft | 546 kts | 61° |
| 2025-09-10 07:29 | -26.96650 | 154.41519 | 34861 ft | 548 kts | 62° |
| 2025-09-10 07:31 | -26.85737 | 154.68769 | 34861 ft | 546 kts | 62° |
| 2025-09-10 07:32 | -26.74845 | 154.95788 | 34864 ft | 544 kts | 62° |
| 2025-09-10 07:35 | -26.60781 | 155.30414 | 34862 ft | 543 kts | 62° |
| 2025-09-10 07:37 | -26.46671 | 155.64864 | 34879 ft | 542 kts | 62° |
| 2025-09-10 07:38 | -26.37631 | 155.88028 | 34876 ft | 543 kts | 65° |
| 2025-09-10 07:41 | -26.23131 | 156.26790 | 34876 ft | 542 kts | 65° |
| 2025-09-10 07:43 | -26.12875 | 156.53850 | 34891 ft | 542 kts | 64° |
| 2025-09-10 07:44 | -26.02571 | 156.80868 | 34888 ft | 543 kts | 64° |
| 2025-09-10 07:47 | -25.89268 | 157.15485 | 34888 ft | 540 kts | 65° |
| 2025-09-10 07:48 | -25.78916 | 157.42219 | 34898 ft | 538 kts | 65° |
| 2025-09-10 07:51 | -25.65552 | 157.76483 | 34899 ft | 538 kts | 65° |
| 2025-09-10 07:52 | -25.55083 | 158.03134 | 34900 ft | 541 kts | 64° |
| 2025-09-10 07:55 | -25.41509 | 158.37430 | 34907 ft | 539 kts | 64° |
| 2025-09-10 07:56 | -25.30982 | 158.63839 | 34908 ft | 534 kts | 64° |
| 2025-09-10 07:59 | -25.17470 | 158.97496 | 34920 ft | 533 kts | 64° |
| 2025-09-10 08:00 | -25.07407 | 159.22397 | 34960 ft | 532 kts | 64° |
| 2025-09-10 08:03 | -24.93766 | 159.55914 | 34983 ft | 532 kts | 64° |
| 2025-09-10 08:05 | -24.80074 | 159.89310 | 34980 ft | 531 kts | 64° |
| 2025-09-10 08:07 | -24.69432 | 160.15088 | 34985 ft | 527 kts | 64° |
| 2025-09-10 08:09 | -24.55755 | 160.47977 | 34994 ft | 526 kts | 63° |
| 2025-09-10 08:11 | -24.45027 | 160.73523 | 35005 ft | 527 kts | 63° |
| 2025-09-10 08:13 | -24.31123 | 161.06436 | 35010 ft | 529 kts | 63° |
| 2025-09-10 08:15 | -24.20242 | 161.32024 | 35012 ft | 529 kts | 63° |
| 2025-09-10 08:17 | -24.06259 | 161.64700 | 35021 ft | 525 kts | 63° |
| 2025-09-10 08:19 | -23.95379 | 161.89965 | 35022 ft | 524 kts | 63° |
| 2025-09-10 08:21 | -23.81337 | 162.22366 | 35028 ft | 525 kts | 63° |
| 2025-09-10 08:23 | -23.70345 | 162.47576 | 35040 ft | 524 kts | 63° |
| 2025-09-10 08:25 | -23.56188 | 162.79845 | 35045 ft | 524 kts | 62° |
| 2025-09-10 08:27 | -23.45327 | 163.04937 | 35043 ft | 524 kts | 66° |
| 2025-09-10 08:29 | -23.33121 | 163.38024 | 35051 ft | 523 kts | 66° |
| 2025-09-10 08:31 | -23.23505 | 163.63599 | 35057 ft | 522 kts | 66° |
| 2025-09-10 08:33 | -23.11073 | 163.96489 | 35058 ft | 523 kts | 66° |
| 2025-09-10 08:35 | -23.01349 | 164.22039 | 35065 ft | 524 kts | 66° |
| 2025-09-10 08:36 | -22.91578 | 164.47569 | 35066 ft | 523 kts | 65° |
| 2025-09-10 08:39 | -22.78960 | 164.80335 | 35063 ft | 522 kts | 65° |
| 2025-09-10 08:41 | -22.66324 | 165.12904 | 35101 ft | 522 kts | 65° |
| 2025-09-10 08:43 | -22.56423 | 165.38267 | 35105 ft | 523 kts | 65° |
| 2025-09-10 08:44 | -22.46948 | 165.62410 | 35101 ft | 524 kts | 65° |
| 2025-09-10 08:47 | -22.34095 | 165.94963 | 35101 ft | 522 kts | 65° |
| 2025-09-10 08:48 | -22.24098 | 166.20128 | 35102 ft | 522 kts | 65° |
| 2025-09-10 08:51 | -22.11145 | 166.52543 | 35117 ft | 524 kts | 65° |
| 2025-09-10 08:52 | -22.00999 | 166.77774 | 35094 ft | 524 kts | 65° |
| 2025-09-10 08:55 | -21.87911 | 167.10131 | 35103 ft | 524 kts | 65° |
| 2025-09-10 08:57 | -21.74699 | 167.42576 | 35083 ft | 527 kts | 65° |
| 2025-09-10 08:59 | -21.64356 | 167.67831 | 35086 ft | 529 kts | 64° |
| 2025-09-10 09:01 | -21.52439 | 167.96764 | 35073 ft | 530 kts | 64° |
| 2025-09-10 09:03 | -21.40497 | 168.25595 | 35070 ft | 527 kts | 64° |
| 2025-09-10 09:05 | -21.28538 | 168.54304 | 35063 ft | 527 kts | 64° |
| 2025-09-10 09:07 | -21.16514 | 168.83000 | 35055 ft | 528 kts | 64° |
| 2025-09-10 09:09 | -21.04426 | 169.11686 | 35059 ft | 529 kts | 64° |
| 2025-09-10 09:10 | -20.93873 | 169.36602 | 35082 ft | 523 kts | 64° |
| 2025-09-10 09:13 | -20.80376 | 169.68292 | 35099 ft | 520 kts | 64° |
| 2025-09-10 09:15 | -20.68319 | 169.96438 | 35102 ft | 523 kts | 64° |
| 2025-09-10 09:17 | -20.54597 | 170.28291 | 35103 ft | 525 kts | 64° |
| 2025-09-10 09:19 | -20.43910 | 170.53085 | 35101 ft | 526 kts | 65° |
| 2025-09-10 09:21 | -20.31631 | 170.85569 | 35102 ft | 525 kts | 66° |
| 2025-09-10 09:23 | -20.21972 | 171.10724 | 35098 ft | 525 kts | 66° |
| 2025-09-10 09:25 | -20.09457 | 171.43146 | 35097 ft | 527 kts | 66° |
| 2025-09-10 09:27 | -19.99649 | 171.68416 | 35095 ft | 528 kts | 66° |
| 2025-09-10 09:29 | -19.86997 | 172.00832 | 35088 ft | 528 kts | 66° |
| 2025-09-10 09:31 | -19.77129 | 172.25974 | 35083 ft | 526 kts | 66° |
| 2025-09-10 09:33 | -19.66311 | 172.53402 | 35074 ft | 525 kts | 66° |
| 2025-09-10 09:35 | -19.54987 | 172.81958 | 35088 ft | 526 kts | 66° |
| 2025-09-10 09:37 | -19.43598 | 173.10526 | 35085 ft | 526 kts | 66° |
| 2025-09-10 09:39 | -19.32157 | 173.39070 | 35071 ft | 526 kts | 66° |
| 2025-09-10 09:41 | -19.20687 | 173.67541 | 35072 ft | 526 kts | 66° |
| 2025-09-10 09:42 | -19.10604 | 173.92445 | 35075 ft | 527 kts | 66° |
| 2025-09-10 09:45 | -18.97580 | 174.24444 | 35068 ft | 527 kts | 66° |
| 2025-09-10 09:46 | -18.87427 | 174.49264 | 35074 ft | 526 kts | 66° |
| 2025-09-10 09:49 | -18.74347 | 174.81076 | 35075 ft | 524 kts | 66° |
| 2025-09-10 09:50 | -18.64181 | 175.05689 | 35078 ft | 524 kts | 66° |
| 2025-09-10 09:53 | -18.51456 | 175.36414 | 35053 ft | 461 kts | 65° |